Time;durP1;ratioP1;P1;durP2;ratioP2;P2;SDS_P1;SDS_P2;PMS_P1;PMS_P2;Temp;Humidity;BMP_temperature;BMP_pressure;BME280_temperature;BME280_humidity;BME280_pressure;Samples;Min_cycle;Max_cycle;Signal;HPM_P1;HPM_P2
2022/02/11 00:07:12;;;;;;;15.82;3.45;;;;;;;1.96;83.36;102341.81;6128080;23;20013;-81
2022/02/11 00:09:42;;;;;;;10.25;3.58;;;;;;;1.96;83.23;102337.16;6154131;23;20020;-81
2022/02/11 00:12:09;;;;;;;9.80;3.45;;;;;;;1.95;83.38;102326.50;6127971;23;20027;-81
2022/02/11 00:14:51;;;;;;;9.00;3.53;;;;;;;1.94;83.39;102327.56;6153874;23;20017;-81
2022/02/11 00:17:18;;;;;;;13.20;4.32;;;;;;;1.95;83.25;102337.41;6127983;23;20022;-81
2022/02/11 00:19:45;;;;;;;19.70;4.40;;;;;;;1.98;83.19;102334.19;6154089;23;20092;-81
2022/02/11 00:22:12;;;;;;;11.27;3.58;;;;;;;1.95;83.00;102329.22;6154004;23;20018;-81
2022/02/11 00:24:41;;;;;;;13.15;3.55;;;;;;;1.96;83.05;102331.69;6128018;23;20014;-82
2022/02/11 00:38:04;;;;;;;9.52;3.67;;;;;;;1.94;83.23;102333.84;6127521;23;20048;-80
2022/02/11 00:45:52;;;;;;;;;;;;;;;1.92;83.89;102336.00;6127639;23;20018;-81
2022/02/11 01:02:27;;;;;;;12.90;4.47;;;;;;;1.93;83.32;102345.88;6127083;23;20025;-81
2022/02/11 01:04:54;;;;;;;7.90;3.20;;;;;;;1.93;83.55;102348.59;6153501;23;20339;-81
2022/02/11 01:07:22;;;;;;;10.75;3.25;;;;;;;1.94;83.86;102349.41;6153555;23;20026;-81
2022/02/11 01:09:49;;;;;;;9.23;3.00;;;;;;;1.94;83.75;102349.41;6127514;23;20064;-81
2022/02/11 01:12:16;;;;;;;9.20;3.47;;;;;;;1.93;83.90;102358.69;6153327;23;20013;-81
2022/02/11 01:14:50;;;;;;;17.30;3.42;;;;;;;1.95;83.71;102359.28;6153167;23;20021;-81
2022/02/11 01:30:52;;;;;;;16.00;4.75;;;;;;;1.99;83.54;102357.69;6152489;23;20086;-81
2022/02/11 01:36:23;;;;;;;10.48;4.03;;;;;;;2.01;84.05;102355.56;6127309;23;20029;-81
2022/02/11 01:39:16;;;;;;;11.85;2.90;;;;;;;2.03;83.98;102353.41;6127210;23;20436;-81
2022/02/11 01:45:01;;;;;;;11.43;3.10;;;;;;;2.00;84.36;102342.97;6153261;23;20014;-81
2022/02/11 01:47:55;;;;;;;8.32;3.40;;;;;;;2.03;84.12;102359.69;6152704;23;20025;-81
2022/02/11 01:50:49;;;;;;;8.82;2.85;;;;;;;2.03;84.16;102356.13;6152224;23;20037;-81
2022/02/11 01:59:16;;;;;;;4.47;2.13;;;;;;;2.00;84.17;102364.81;6153226;23;20024;-81
2022/02/11 02:04:58;;;;;;;16.17;3.35;;;;;;;2.02;84.22;102362.66;6152945;23;20017;-81
2022/02/11 02:24:54;;;;;;;13.50;3.60;;;;;;;1.85;84.61;102377.13;6126563;23;20025;-81
2022/02/11 02:27:53;;;;;;;17.67;3.20;;;;;;;1.82;84.55;102374.91;6126652;23;20010;-81
2022/02/11 02:58:07;;;;;;;10.30;3.42;;;;;;;1.62;84.56;102369.09;6154816;23;20025;-81
2022/02/11 03:01:32;;;;;;;9.35;3.33;;;;;;;1.59;84.70;102372.31;6154506;23;20448;-81
2022/02/11 04:23:01;;;;;;;6.05;2.05;;;;;;;1.43;85.34;102392.19;6184114;23;20009;-81
2022/02/11 04:55:26;;;;;;;9.50;2.35;;;;;;;1.22;85.35;102395.63;6153457;23;20453;-81
2022/02/11 05:00:39;;;;;;;12.55;2.53;;;;;;;1.18;85.74;102398.03;6153925;23;20515;-81
2022/02/11 05:03:07;;;;;;;13.38;2.88;;;;;;;1.22;85.74;102403.78;6153001;23;20417;-80
2022/02/11 05:05:49;;;;;;;11.02;2.88;;;;;;;1.22;85.53;102398.34;6127559;23;20014;-81
2022/02/11 05:08:19;;;;;;;7.60;2.47;;;;;;;1.22;85.64;102396.44;6153576;23;20021;-81
2022/02/11 05:10:48;;;;;;;9.88;2.30;;;;;;;1.24;85.72;102398.94;6127431;23;20432;-81
2022/02/11 05:13:16;;;;;;;11.00;2.30;;;;;;;1.22;86.00;102396.44;6127306;23;20071;-81
2022/02/11 05:15:43;;;;;;;9.38;2.05;;;;;;;1.22;86.16;102404.63;6127660;23;20044;-80
2022/02/11 05:18:10;;;;;;;8.60;2.13;;;;;;;1.22;86.49;102395.63;6126811;23;20021;-80
2022/02/11 05:20:38;;;;;;;10.20;2.88;;;;;;;1.26;85.81;102399.53;6151777;23;20017;-80
2022/02/11 05:23:06;;;;;;;9.77;2.33;;;;;;;1.25;86.06;102400.59;6127408;23;20024;-80
2022/02/11 05:25:34;;;;;;;6.70;3.00;;;;;;;1.27;86.20;102408.53;6126935;23;20017;-80
2022/02/11 05:28:00;;;;;;;10.25;2.03;;;;;;;1.24;85.80;102399.75;6152858;23;20041;-80
2022/02/11 05:30:31;;;;;;;10.18;2.10;;;;;;;1.23;86.17;102402.75;6127270;23;20069;-81
2022/02/11 05:32:59;;;;;;;9.32;1.83;;;;;;;1.22;85.78;102409.25;6152782;23;20025;-80
2022/02/11 05:35:26;;;;;;;18.58;3.10;;;;;;;1.20;86.14;102403.22;6152508;23;20017;-80
2022/02/11 05:37:53;;;;;;;13.10;2.85;;;;;;;1.21;85.84;102413.06;6126665;23;20025;-80
2022/02/11 05:40:21;;;;;;;8.93;2.63;;;;;;;1.20;85.90;102408.66;6152688;23;20037;-81
2022/02/11 05:42:48;;;;;;;8.55;3.33;;;;;;;1.20;85.80;102422.31;6152898;23;20026;-81
2022/02/11 05:45:15;;;;;;;5.25;2.70;;;;;;;1.18;85.73;102413.56;6126806;23;20017;-80
2022/02/11 05:47:42;;;;;;;13.27;4.22;;;;;;;1.17;85.80;102420.91;6126539;23;20127;-80
2022/02/11 05:50:09;;;;;;;8.50;2.67;;;;;;;1.16;86.17;102418.44;6152379;23;20421;-80
2022/02/11 05:52:53;;;;;;;13.85;2.50;;;;;;;1.14;85.57;102409.63;6152522;23;20025;-80
2022/02/11 05:55:20;;;;;;;7.50;2.70;;;;;;;1.09;85.73;102406.81;6102597;23;20025;-81
2022/02/11 05:57:47;;;;;;;10.60;2.60;;;;;;;1.08;85.54;102407.91;6126339;23;20077;-80
2022/02/11 06:00:14;;;;;;;11.32;2.33;;;;;;;1.08;86.21;102399.72;6126908;23;20096;-81
2022/02/11 06:02:41;;;;;;;12.88;2.72;;;;;;;1.10;86.05;102408.47;6152456;23;20444;-80
2022/02/11 06:05:08;;;;;;;6.07;1.92;;;;;;;1.11;86.15;102405.50;6126979;23;20017;-80
2022/02/11 06:07:35;;;;;;;5.97;2.22;;;;;;;1.12;85.61;102400.88;6150719;23;20024;-80
2022/02/11 06:10:03;;;;;;;9.90;2.10;;;;;;;1.09;85.81;102395.91;6126951;23;20061;-81
2022/02/11 06:12:30;;;;;;;6.40;1.85;;;;;;;1.09;85.86;102395.91;6126346;23;20021;-81
2022/02/11 06:14:57;;;;;;;5.10;1.92;;;;;;;1.09;86.11;102390.44;6152669;23;20017;-80
2022/02/11 06:17:24;;;;;;;11.25;2.53;;;;;;;1.10;86.00;102397.56;6152681;23;20010;-80
2022/02/11 06:19:52;;;;;;;8.82;2.63;;;;;;;1.12;86.05;102398.16;6151572;23;20604;-81
2022/02/11 06:22:19;;;;;;;6.13;1.75;;;;;;;1.14;86.07;102398.72;6152348;23;20025;-80
2022/02/11 06:24:47;;;;;;;10.70;2.42;;;;;;;1.14;85.92;102390.53;6151953;23;20054;-81
2022/02/11 06:27:17;;;;;;;6.90;3.20;;;;;;;1.14;86.10;102409.63;6126499;23;20068;-81
2022/02/11 06:29:44;;;;;;;8.38;2.20;;;;;;;1.15;86.07;102405.84;6152454;23;20017;-81
2022/02/11 06:32:11;;;;;;;13.90;2.78;;;;;;;1.16;86.05;102408.34;6126919;23;20017;-81
2022/02/11 06:34:38;;;;;;;10.00;1.60;;;;;;;1.18;86.25;102402.63;6151836;23;20511;-81
2022/02/11 06:37:05;;;;;;;12.80;2.30;;;;;;;1.20;86.25;102404.06;6126599;23;20440;-80
2022/02/11 06:39:32;;;;;;;5.82;1.65;;;;;;;1.23;86.07;102409.03;6152636;23;20010;-81
2022/02/11 06:42:00;;;;;;;10.88;1.98;;;;;;;1.24;85.88;102409.88;6152751;23;20436;-81
2022/02/11 06:44:26;;;;;;;9.35;2.30;;;;;;;1.25;85.83;102416.97;6126685;23;20021;-81
2022/02/11 06:46:54;;;;;;;8.10;2.40;;;;;;;1.26;85.73;102415.91;6152816;23;20022;-81
2022/02/11 06:49:20;;;;;;;9.60;2.08;;;;;;;1.27;85.56;102425.75;6152118;23;20014;-81
2022/02/11 06:51:49;;;;;;;10.32;2.45;;;;;;;1.24;86.10;102420.78;6152397;23;20018;-81
2022/02/11 06:54:16;;;;;;;7.57;2.15;;;;;;;1.24;85.71;102434.41;6152472;23;20520;-81
2022/02/11 06:56:42;;;;;;;12.52;3.78;;;;;;;1.24;85.89;102434.41;6152475;23;20014;-81
2022/02/11 06:59:09;;;;;;;6.47;1.55;;;;;;;1.20;85.78;102441.41;6102643;23;20384;-81
2022/02/11 07:01:37;;;;;;;13.45;2.03;;;;;;;1.17;85.66;102439.16;6102529;23;20440;-81
2022/02/11 07:04:12;;;;;;;6.53;1.90;;;;;;;1.14;85.81;102434.19;6128465;23;20049;-81
2022/02/11 07:06:39;;;;;;;10.77;2.67;;;;;;;1.11;85.76;102442.88;6152234;23;20013;-81
2022/02/11 07:09:06;;;;;;;7.30;1.65;;;;;;;1.05;85.57;102438.38;6152651;23;20022;-81
2022/02/11 07:11:33;;;;;;;7.38;2.13;;;;;;;1.02;85.52;102438.84;6151880;23;20029;-81
2022/02/11 07:14:00;;;;;;;6.05;1.52;;;;;;;0.97;85.74;102438.75;6152821;23;20420;-81
2022/02/11 07:16:27;;;;;;;11.57;2.60;;;;;;;0.93;85.72;102445.72;6126388;23;20072;-80
2022/02/11 07:18:54;;;;;;;7.47;2.60;;;;;;;0.89;85.71;102448.13;6125977;23;20025;-81
2022/02/11 07:21:24;;;;;;;17.05;3.30;;;;;;;0.89;85.59;102445.41;6128920;23;20092;-81
2022/02/11 07:23:50;;;;;;;6.43;1.88;;;;;;;0.85;85.78;102451.59;6127759;23;20025;-81
2022/02/11 07:26:18;;;;;;;9.95;3.20;;;;;;;0.86;85.63;102445.03;6128364;23;20017;-81
2022/02/11 07:28:48;;;;;;;6.63;2.13;;;;;;;0.87;85.78;102460.34;6154154;23;20024;-81
2022/02/11 07:31:14;;;;;;;13.90;3.10;;;;;;;0.84;85.74;102456.19;6153767;23;20047;-81
2022/02/11 07:33:43;;;;;;;10.85;2.92;;;;;;;0.84;85.76;102452.63;6154328;23;20018;-81
2022/02/11 07:36:12;;;;;;;11.18;2.75;;;;;;;0.84;85.61;102452.63;6154149;23;20014;-81
2022/02/11 07:38:39;;;;;;;7.22;1.95;;;;;;;0.81;85.64;102447.66;6127884;23;20056;-81
2022/02/11 07:41:06;;;;;;;8.65;3.65;;;;;;;0.81;85.70;102436.75;6154356;23;20096;-81
2022/02/11 07:43:33;;;;;;;9.10;2.40;;;;;;;0.79;85.99;102442.47;6152947;23;20017;-81
2022/02/11 07:46:08;;;;;;;6.65;2.40;;;;;;;0.78;85.65;102439.94;6129875;23;20021;-81
2022/02/11 07:48:35;;;;;;;7.03;2.15;;;;;;;0.77;85.54;102446.50;6153865;23;20072;-81
2022/02/11 07:51:02;;;;;;;7.03;2.40;;;;;;;0.75;85.79;102444.00;6153901;23;20123;-81
2022/02/11 07:53:29;;;;;;;6.38;2.50;;;;;;;0.75;85.75;102437.69;6154317;23;20021;-81
2022/02/11 07:55:56;;;;;;;11.05;2.25;;;;;;;0.72;85.97;102440.91;6127386;23;20017;-82
2022/02/11 07:58:26;;;;;;;8.57;3.28;;;;;;;0.70;85.81;102435.69;6127643;23;20013;-81
2022/02/11 08:00:54;;;;;;;16.60;4.53;;;;;;;0.72;85.70;102427.28;6127206;23;20456;-80
2022/02/11 08:03:23;;;;;;;17.13;5.32;;;;;;;0.69;86.12;102438.69;6127674;23;20088;-81
2022/02/11 08:05:53;;;;;;;10.55;4.18;;;;;;;0.68;85.99;102443.28;6128433;23;20025;-81
2022/02/11 08:08:24;;;;;;;14.38;2.35;;;;;;;0.70;85.84;102438.44;6127581;23;20025;-80
2022/02/11 08:10:52;;;;;;;10.75;2.55;;;;;;;0.73;85.86;102442.56;6154059;23;20021;-80
2022/02/11 08:13:20;;;;;;;9.45;2.40;;;;;;;0.74;85.78;102447.81;6127646;23;20032;-81
2022/02/11 08:15:47;;;;;;;14.43;4.78;;;;;;;0.73;86.02;102446.13;6128000;23;20042;-81
2022/02/11 08:18:14;;;;;;;10.05;5.25;;;;;;;0.78;85.90;102459.88;6127959;23;20025;-81
2022/02/11 08:21:02;;;;;;;17.80;5.38;;;;;;;0.82;85.68;102455.59;6132131;23;20021;-81
2022/02/11 08:23:28;;;;;;;12.60;4.85;;;;;;;0.85;85.98;102441.47;6128240;23;20026;-81
2022/02/11 08:25:57;;;;;;;11.55;4.63;;;;;;;0.89;85.81;102450.03;6154099;23;20025;-81
2022/02/11 08:28:24;;;;;;;15.50;5.25;;;;;;;0.95;85.88;102459.97;6103638;23;20372;-81
2022/02/11 08:30:51;;;;;;;14.73;4.65;;;;;;;0.98;86.06;102454.06;6127711;23;20026;-81
2022/02/11 08:33:21;;;;;;;13.38;4.68;;;;;;;0.98;85.99;102454.84;6127993;23;20017;-81
2022/02/11 08:35:54;;;;;;;11.95;4.22;;;;;;;1.00;86.29;102455.47;6154039;23;20026;-81
2022/02/11 08:38:22;;;;;;;8.57;4.32;;;;;;;1.07;86.47;102460.78;6153542;23;20021;-82
2022/02/11 08:40:50;;;;;;;10.77;3.63;;;;;;;1.11;86.34;102454.59;6153242;23;20040;-82
2022/02/11 08:43:20;;;;;;;9.98;3.60;;;;;;;1.15;86.23;102455.78;6127898;23;20021;-82
2022/02/11 08:45:48;;;;;;;10.27;3.58;;;;;;;1.22;86.44;102466.53;6102163;23;20025;-82
2022/02/11 08:48:15;;;;;;;13.98;4.07;;;;;;;1.31;86.56;102459.66;6152376;23;20083;-82
2022/02/11 08:50:43;;;;;;;12.57;3.60;;;;;;;1.38;86.46;102452.13;6127383;23;20020;-81
2022/02/11 08:53:31;;;;;;;12.52;4.80;;;;;;;1.49;86.52;102456.72;6154009;23;20088;-82
2022/02/11 08:56:06;;;;;;;10.40;3.28;;;;;;;1.55;86.59;102455.78;6126796;23;20017;-81
2022/02/11 08:58:35;;;;;;;12.50;3.80;;;;;;;1.63;86.35;102463.56;6127327;23;20055;-81
2022/02/11 09:01:02;;;;;;;9.30;4.15;;;;;;;1.70;86.69;102456.06;6153359;23;20029;-82
2022/02/11 09:03:29;;;;;;;11.02;3.95;;;;;;;1.78;86.44;102452.94;6128569;23;20413;-80
2022/02/11 09:05:56;;;;;;;13.85;4.40;;;;;;;1.89;86.38;102467.59;6154047;23;20087;-81
2022/02/11 09:08:24;;;;;;;10.10;2.38;;;;;;;1.98;86.78;102454.38;6153249;23;20025;-81
2022/02/11 09:10:52;;;;;;;6.15;2.35;;;;;;;2.08;86.57;102465.47;6152310;23;20088;-81
2022/02/11 09:13:19;;;;;;;12.82;2.72;;;;;;;2.17;86.45;102458.53;6102486;23;20340;-82
2022/02/11 09:15:47;;;;;;;14.80;2.67;;;;;;;2.26;86.45;102454.31;6151833;23;20017;-81
2022/02/11 09:18:24;;;;;;;11.23;4.25;;;;;;;2.33;86.22;102455.78;6127992;23;20017;-82
2022/02/11 09:20:51;;;;;;;10.15;2.30;;;;;;;2.39;86.41;102446.59;6153642;23;20021;-81
2022/02/11 09:23:20;;;;;;;8.75;2.70;;;;;;;2.47;86.47;102461.75;6153107;23;20025;-81
2022/02/11 09:25:50;;;;;;;9.48;2.67;;;;;;;2.54;86.21;102456.13;6153592;23;20025;-80
2022/02/11 09:28:17;;;;;;;8.95;2.25;;;;;;;2.60;86.36;102453.19;6153296;23;20013;-81
2022/02/11 09:30:45;;;;;;;8.90;2.95;;;;;;;2.67;86.00;102458.50;6127479;23;20018;-81
2022/02/11 09:33:13;;;;;;;10.43;3.08;;;;;;;2.74;85.93;102464.63;6153462;23;20025;-80
2022/02/11 09:35:41;;;;;;;10.32;3.72;;;;;;;2.79;85.92;102457.31;6127375;23;20024;-80
2022/02/11 09:38:09;;;;;;;10.30;3.15;;;;;;;2.84;86.04;102454.66;6153468;23;20077;-80
2022/02/11 09:40:40;;;;;;;12.68;3.83;;;;;;;2.89;86.14;102460.19;6171303;23;20072;-79
2022/02/11 09:43:09;;;;;;;12.45;2.45;;;;;;;2.94;85.69;102460.25;6182397;23;20025;-80
2022/02/11 09:45:36;;;;;;;7.45;3.15;;;;;;;2.99;85.56;102462.25;6132473;23;20017;-81
2022/02/11 09:48:03;;;;;;;12.73;4.38;;;;;;;2.99;85.46;102449.38;6156726;23;20080;-81
2022/02/11 09:50:31;;;;;;;8.35;2.47;;;;;;;3.04;85.29;102454.91;6156866;23;20013;-80
2022/02/11 09:52:56;;;;;;;11.02;2.95;;;;;;;3.10;85.21;102460.50;6156973;23;20431;-80
2022/02/11 09:55:35;;;;;;;11.32;3.72;;;;;;;3.14;84.91;102453.41;6183096;23;20021;-80
2022/02/11 09:58:09;;;;;;;8.93;2.30;;;;;;;3.18;84.75;102449.09;6157129;23;20013;-80
2022/02/11 10:00:39;;;;;;;12.23;2.75;;;;;;;3.24;84.43;102443.41;6156275;23;20020;-80
2022/02/11 10:03:39;;;;;;;13.63;2.90;;;;;;;3.29;84.13;102448.13;6156911;23;20021;-80
2022/02/11 10:06:07;;;;;;;11.90;3.17;;;;;;;3.34;84.18;102440.81;6156567;23;20443;-80
2022/02/11 10:08:39;;;;;;;11.32;2.15;;;;;;;3.40;84.11;102444.44;6182599;23;20032;-80
2022/02/11 10:11:08;;;;;;;12.57;2.35;;;;;;;3.44;84.23;102454.59;6182949;23;20021;-80
2022/02/11 10:13:39;;;;;;;6.60;1.80;;;;;;;3.50;83.95;102455.50;6206423;23;20120;-80
2022/02/11 10:16:10;;;;;;;4.70;2.45;;;;;;;3.55;83.90;102444.59;6182564;23;20027;-80
2022/02/11 10:18:40;;;;;;;9.80;3.33;;;;;;;3.61;83.34;102441.66;6156551;23;20017;-80
2022/02/11 10:21:08;;;;;;;6.65;2.45;;;;;;;3.64;83.07;102449.38;6156494;23;20021;-80
2022/02/11 10:23:39;;;;;;;5.97;1.90;;;;;;;3.66;82.68;102446.38;6182486;23;20080;-80
2022/02/11 10:26:13;;;;;;;4.82;1.77;;;;;;;3.67;82.46;102443.38;6183035;23;20401;-81
2022/02/11 10:28:44;;;;;;;8.98;2.30;;;;;;;3.69;82.17;102434.91;6132394;23;20111;-80
2022/02/11 10:31:18;;;;;;;6.00;1.67;;;;;;;3.71;82.33;102437.41;6182611;23;20009;-80
2022/02/11 10:33:52;;;;;;;7.07;1.75;;;;;;;3.74;82.04;102432.22;6156431;23;20129;-80
2022/02/11 10:36:39;;;;;;;3.83;1.60;;;;;;;3.79;82.05;102423.19;6182654;23;20021;-80
2022/02/11 10:39:27;;;;;;;9.55;1.55;;;;;;;3.82;81.81;102420.78;6159833;23;20040;-80
2022/02/11 10:41:57;;;;;;;7.55;1.70;;;;;;;3.84;82.09;102413.13;6182460;23;20061;-80
2022/02/11 10:44:27;;;;;;;10.57;1.88;;;;;;;3.87;81.89;102409.88;6155816;23;20056;-80
2022/02/11 10:46:59;;;;;;;7.22;1.70;;;;;;;3.89;81.93;102402.22;6155719;23;20498;-80
2022/02/11 10:49:47;;;;;;;6.88;1.60;;;;;;;3.92;81.58;102400.88;6182514;23;20435;-81
2022/02/11 10:52:18;;;;;;;6.10;2.60;;;;;;;3.94;81.49;102405.03;6182551;23;20021;-80
2022/02/11 10:54:50;;;;;;;8.35;3.25;;;;;;;3.96;81.61;102389.13;6132730;23;20024;-80
2022/02/11 10:57:22;;;;;;;;;;;;;;;3.97;81.06;102388.03;6158496;23;20021;-80
2022/02/11 10:59:50;;;;;;;7.53;2.95;;;;;;;3.99;81.46;102391.38;6133447;23;19995;-80
2022/02/11 11:02:21;;;;;;;5.65;2.10;;;;;;;4.03;81.21;102377.94;6182403;23;20411;-80
2022/02/11 11:04:50;;;;;;;5.43;2.10;;;;;;;4.06;81.19;102380.16;6157983;23;20220;-80
2022/02/11 11:07:25;;;;;;;7.45;1.67;;;;;;;4.09;81.15;102385.97;6183736;23;20029;-80
2022/02/11 11:10:13;;;;;;;5.57;2.20;;;;;;;4.10;80.98;102376.63;6136018;23;20021;-80
2022/02/11 11:12:54;;;;;;;8.95;2.42;;;;;;;4.13;80.94;102375.31;6184352;23;20088;-80
2022/02/11 11:15:26;;;;;;;12.20;2.00;;;;;;;4.13;80.85;102369.81;6184264;23;20029;-80
2022/02/11 11:17:55;;;;;;;7.22;2.25;;;;;;;4.18;80.91;102376.13;6157854;23;20021;-80
2022/02/11 11:20:25;;;;;;;5.75;1.67;;;;;;;4.22;81.27;102363.59;6182722;23;20335;-80
2022/02/11 11:23:02;;;;;;;6.72;2.30;;;;;;;4.24;80.59;102369.63;6157174;23;20017;-80
2022/02/11 11:25:52;;;;;;;4.25;1.80;;;;;;;4.29;80.62;102361.44;6183479;23;20367;-81
2022/02/11 11:28:38;;;;;;;4.07;1.70;;;;;;;4.37;80.53;102359.28;6156922;23;20075;-80
2022/02/11 11:31:28;;;;;;;6.40;1.88;;;;;;;4.42;80.40;102354.66;6184033;23;20013;-80
2022/02/11 11:34:14;;;;;;;7.75;2.08;;;;;;;4.52;79.36;102353.91;6157717;23;20384;-81
2022/02/11 11:36:50;;;;;;;6.60;1.52;;;;;;;4.58;79.25;102350.09;6133052;23;20048;-82
2022/02/11 11:39:23;;;;;;;8.23;1.67;;;;;;;4.64;79.35;102338.03;6132304;23;20575;-82
2022/02/11 11:42:03;;;;;;;11.07;1.80;;;;;;;4.70;79.23;102337.81;6157173;23;20104;-81
2022/02/11 11:44:46;;;;;;;7.53;2.25;;;;;;;4.78;79.11;102333.72;6158315;23;20017;-81
2022/02/11 11:47:39;;;;;;;5.80;2.33;;;;;;;4.84;78.38;102336.22;6133265;23;20044;-81
2022/02/11 11:50:41;;;;;;;10.68;1.90;;;;;;;4.95;78.85;102330.78;6133597;23;20412;-81
2022/02/11 11:53:47;;;;;;;6.03;1.75;;;;;;;5.06;79.14;102319.56;6154091;23;20017;-81
2022/02/11 11:56:35;;;;;;;4.50;1.38;;;;;;;5.18;78.57;102317.41;6156912;23;20095;-81
2022/02/11 11:59:14;;;;;;;5.60;0.98;;;;;;;5.26;78.11;102314.13;6157149;23;20017;-81
2022/02/11 12:01:54;;;;;;;4.97;1.00;;;;;;;5.30;77.00;102312.47;6157318;23;20067;-81
2022/02/11 12:04:27;;;;;;;3.20;1.02;;;;;;;5.35;76.89;102300.66;6157527;23;20021;-81
2022/02/11 12:07:05;;;;;;;5.40;1.10;;;;;;;5.39;77.21;102299.88;6132931;23;20029;-81
2022/02/11 12:09:33;;;;;;;4.00;0.55;;;;;;;5.44;76.48;102288.88;6182225;23;20024;-81
2022/02/11 12:12:05;;;;;;;5.35;0.95;;;;;;;5.54;75.71;102304.53;6157649;23;20017;-81
2022/02/11 12:14:33;;;;;;;;;;;;;;;5.61;73.68;102287.81;6184211;23;20024;-81
2022/02/11 12:17:05;;;;;;;5.28;0.98;;;;;;;5.70;75.64;102288.88;6183834;23;19920;-82
2022/02/11 12:19:34;;;;;;;;;;;;;;;5.77;73.62;102293.00;6184400;23;20439;-81
2022/02/11 12:22:05;;;;;;;5.68;1.45;;;;;;;5.86;75.57;102282.31;6183289;23;19920;-81
2022/02/11 12:27:30;;;;;;;6.43;1.83;;;;;;;6.01;74.02;102274.88;6183694;23;20021;-81
2022/02/11 12:30:05;;;;;;;3.33;0.88;;;;;;;6.08;74.72;102274.59;6183840;23;20013;-82
2022/02/11 12:32:37;;;;;;;5.22;0.90;;;;;;;6.10;74.56;102272.38;6157675;23;20017;-82
2022/02/11 12:35:06;;;;;;;5.43;0.93;;;;;;;6.11;74.29;102276.78;6182177;23;20083;-82
2022/02/11 12:37:33;;;;;;;4.78;2.35;;;;;;;6.14;74.40;102268.00;6157502;23;20048;-82
2022/02/11 12:40:03;;;;;;;7.18;1.60;;;;;;;6.20;74.14;102257.78;6183125;23;20023;-81
2022/02/11 12:42:46;;;;;;;5.50;1.63;;;;;;;6.26;73.94;102263.00;6183229;23;20043;-81
2022/02/11 12:45:32;;;;;;;6.57;2.00;;;;;;;6.32;73.67;102253.63;6183134;23;20009;-81
2022/02/11 12:48:00;;;;;;;7.03;1.83;;;;;;;6.35;73.71;102244.84;6183293;23;20033;-82
2022/02/11 12:50:37;;;;;;;7.45;0.93;;;;;;;6.42;72.21;102255.53;6183426;23;20039;-81
2022/02/11 12:53:32;;;;;;;5.70;1.15;;;;;;;6.51;72.50;102232.63;6158228;23;20025;-82
2022/02/11 13:01:20;;;;;;;7.13;0.93;;;;;;;6.82;70.60;102222.31;6111006;23;20022;-82
2022/02/11 13:04:30;;;;;;;;;;;;;;;;;;;;;
2022/02/11 13:07:34;;;;;;;2.67;0.60;;;;;;;6.98;72.02;102198.25;5946887;24;20110;-81
2022/02/11 13:10:04;;;;;;;3.15;0.95;;;;;;;7.12;71.48;102204.78;5949130;24;20033;-80
2022/02/11 13:12:40;;;;;;;4.78;0.77;;;;;;;7.18;69.37;102193.41;5949309;24;20021;-80
2022/02/11 13:15:12;;;;;;;2.30;0.52;;;;;;;7.20;70.20;102180.19;6012816;23;20026;-80
2022/02/11 13:17:44;;;;;;;8.03;2.53;;;;;;;7.28;70.41;102179.56;6066926;23;20045;-80
2022/02/11 13:20:19;;;;;;;2.42;0.93;;;;;;;7.36;69.73;102175.34;6066702;23;20336;-81
2022/02/11 13:22:49;;;;;;;2.55;0.77;;;;;;;7.52;70.01;102167.81;6067863;23;20463;-80
2022/02/11 13:25:18;;;;;;;3.45;1.00;;;;;;;7.61;69.53;102168.81;6091292;23;20059;-81
2022/02/11 13:27:53;;;;;;;6.18;1.20;;;;;;;7.73;67.37;102167.28;6092330;23;20064;-80
2022/02/11 13:30:25;;;;;;;4.00;1.15;;;;;;;7.84;68.47;102146.78;6091824;23;20018;-81
2022/02/11 13:32:53;;;;;;;4.82;1.27;;;;;;;7.84;68.20;102143.19;6091923;23;20023;-80
2022/02/11 13:35:21;;;;;;;19.65;1.88;;;;;;;7.87;68.00;102132.41;6091486;23;20032;-81
2022/02/11 13:37:51;;;;;;;2.53;0.52;;;;;;;7.86;67.86;102138.22;6043679;23;20052;-79
2022/02/11 13:40:26;;;;;;;2.10;0.80;;;;;;;7.89;66.86;102137.63;6091109;23;20026;-80
2022/02/11 13:43:53;;;;;;;1.83;0.55;;;;;;;8.00;66.86;102119.84;6067543;23;20023;-80
2022/02/11 13:47:18;;;;;;;4.78;0.98;;;;;;;8.30;67.55;102118.66;6100884;23;20054;-80
2022/02/11 13:49:51;;;;;;;7.25;0.80;;;;;;;8.53;67.58;102117.78;6091583;23;20022;-80
2022/02/11 13:55:09;;;;;;;4.47;0.68;;;;;;;8.79;66.66;102102.47;6183158;23;20020;-79
2022/02/11 13:57:37;;;;;;;7.25;0.75;;;;;;;8.79;66.02;102102.47;6132989;23;20013;-78
2022/02/11 14:00:37;;;;;;;8.15;0.65;;;;;;;8.72;63.07;102096.50;6131647;23;20021;-79
2022/02/11 14:03:04;;;;;;;6.68;1.45;;;;;;;8.74;65.30;102091.50;6156795;23;20045;-79
2022/02/11 14:05:45;;;;;;;4.28;0.57;;;;;;;8.71;63.01;102094.88;6157255;23;20029;-79
2022/02/11 14:11:55;;;;;;;5.90;1.45;;;;;;;8.58;64.53;102074.34;6058365;23;20383;-79
2022/02/11 14:14:26;;;;;;;10.73;1.05;;;;;;;8.60;64.88;102068.56;6182855;23;20013;-79
2022/02/11 14:16:56;;;;;;;3.25;0.57;;;;;;;8.63;64.50;102061.63;6157501;23;20140;-79
2022/02/11 14:19:26;;;;;;;3.17;0.90;;;;;;;8.57;64.02;102066.38;6156151;23;20466;-79
2022/02/11 14:21:56;;;;;;;10.77;1.70;;;;;;;8.51;64.48;102068.41;6131759;23;20021;-80
2022/02/11 14:24:25;;;;;;;5.05;1.33;;;;;;;8.40;64.08;102055.03;6154429;23;20063;-79
2022/02/11 14:26:55;;;;;;;7.57;1.80;;;;;;;8.25;64.49;102046.97;6181916;23;20408;-79
2022/02/11 14:29:24;;;;;;;6.65;1.55;;;;;;;8.14;64.58;102045.47;6182583;23;20013;-79
2022/02/11 14:31:52;;;;;;;4.55;1.90;;;;;;;8.05;64.97;102039.00;6158859;23;20432;-80
2022/02/11 14:34:19;;;;;;;4.03;1.80;;;;;;;7.98;65.36;102039.34;6185567;23;20076;-80
2022/02/11 14:36:46;;;;;;;5.57;1.92;;;;;;;7.92;65.05;102033.06;6157666;23;20017;-79
2022/02/11 14:39:16;;;;;;;4.30;0.82;;;;;;;7.86;65.12;102038.97;6184536;23;20017;-79
2022/02/11 14:41:49;;;;;;;6.13;1.05;;;;;;;7.85;65.44;102031.78;6184933;23;20044;-79
2022/02/11 14:44:24;;;;;;;2.92;0.77;;;;;;;7.82;64.79;102037.91;6134072;23;20017;-79
2022/02/11 14:46:54;;;;;;;4.45;1.00;;;;;;;7.76;65.48;102033.56;6133873;23;20032;-79
2022/02/11 14:49:25;;;;;;;4.30;1.20;;;;;;;7.71;65.80;102031.69;6182642;23;20068;-79
2022/02/11 14:51:58;;;;;;;4.25;1.40;;;;;;;7.62;66.23;102027.97;6184080;23;20013;-81
2022/02/11 14:54:26;;;;;;;5.30;1.55;;;;;;;7.61;66.40;102015.28;6158121;23;20148;-80
2022/02/11 14:56:54;;;;;;;7.28;2.03;;;;;;;7.62;66.71;102018.88;6184222;23;20080;-80
2022/02/11 14:59:22;;;;;;;3.58;0.90;;;;;;;7.62;66.91;102005.09;6182707;23;20024;-80
2022/02/11 15:01:51;;;;;;;4.72;0.93;;;;;;;7.63;67.40;102006.72;6131799;23;20025;-80
2022/02/11 15:04:18;;;;;;;3.55;1.17;;;;;;;7.65;68.02;101999.00;6158275;23;20024;-80
2022/02/11 15:06:47;;;;;;;4.32;1.58;;;;;;;7.65;67.89;101990.72;6184304;23;20021;-80
2022/02/11 15:09:14;;;;;;;4.30;1.15;;;;;;;7.68;67.92;101988.19;6184865;23;20017;-80
2022/02/11 15:11:42;;;;;;;3.85;0.93;;;;;;;7.70;68.23;101980.47;6184435;23;20443;-80
2022/02/11 15:14:10;;;;;;;2.97;1.38;;;;;;;7.73;68.07;101988.09;6158461;23;20440;-80
2022/02/11 15:16:38;;;;;;;6.15;1.33;;;;;;;7.74;68.27;101970.47;6158046;23;20021;-80
2022/02/11 15:19:08;;;;;;;9.18;1.20;;;;;;;7.77;68.23;101964.38;6182836;23;20072;-80
2022/02/11 15:21:36;;;;;;;6.95;2.40;;;;;;;7.82;68.21;101955.19;6157848;23;20025;-80
2022/02/11 15:24:03;;;;;;;3.47;1.10;;;;;;;7.79;68.20;101947.50;6184203;23;20031;-80
2022/02/11 15:26:30;;;;;;;3.60;0.85;;;;;;;7.75;67.94;101950.06;6184445;23;20013;-80
2022/02/11 15:28:57;;;;;;;3.47;1.52;;;;;;;7.72;67.89;101941.56;6158025;23;20021;-80
2022/02/11 15:31:24;;;;;;;7.65;2.05;;;;;;;7.70;67.59;101935.53;6157580;23;20436;-80
2022/02/11 15:33:52;;;;;;;4.72;0.68;;;;;;;7.69;67.77;101929.19;6184641;23;20017;-80
2022/02/11 15:36:20;;;;;;;4.95;1.13;;;;;;;7.68;67.72;101940.50;6182767;23;20041;-80
2022/02/11 15:38:47;;;;;;;3.97;1.42;;;;;;;7.66;67.72;101929.78;6133504;23;20017;-80
2022/02/11 15:41:15;;;;;;;6.85;3.17;;;;;;;7.63;67.72;101930.38;6184099;23;20009;-80
2022/02/11 15:43:42;;;;;;;2.92;0.88;;;;;;;7.59;67.63;101923.81;6133424;23;20032;-80
2022/02/11 15:46:10;;;;;;;3.08;0.90;;;;;;;7.54;67.65;101910.13;6184138;23;20017;-80
2022/02/11 15:48:40;;;;;;;1.80;0.70;;;;;;;7.53;67.92;101919.50;6157976;23;20013;-79
2022/02/11 15:51:09;;;;;;;4.60;1.30;;;;;;;7.52;67.96;101917.84;6157667;23;20052;-80